Time;durP1;ratioP1;P1;durP2;ratioP2;P2;SDS_P1;SDS_P2;PMS_P1;PMS_P2;Temp;Humidity;BMP_temperature;BMP_pressure;BME280_temperature;BME280_humidity;BME280_pressure;Samples;Min_cycle;Max_cycle;Signal;HPM_P1;HPM_P2
2023/01/07 00:01:12;;;;;;;;;;;10.90;99.90;;;;;;4962469;28;19906;-73
2023/01/07 00:03:38;;;;;;;;;;;11.00;99.90;;;;;;4964531;28;19906;-73
2023/01/07 00:06:05;;;;;;;;;;;11.00;99.90;;;;;;4962952;28;19921;-73
2023/01/07 00:08:31;;;;;;;;;;;11.00;99.90;;;;;;4965825;28;19963;-71
2023/01/07 00:10:59;;;;;;;;;;;10.90;99.90;;;;;;4999928;28;19992;-73
2023/01/07 00:13:25;;;;;;;;;;;11.00;99.90;;;;;;4993901;28;19937;-73
2023/01/07 00:15:50;;;;;;;;;;;11.10;99.90;;;;;;4962269;28;20355;-73
2023/01/07 00:18:15;;;;;;;;;;;11.20;99.90;;;;;;4962953;28;19906;-72
2023/01/07 00:20:41;;;;;;;;;;;11.20;99.90;;;;;;4963298;28;20015;-72
2023/01/07 00:23:06;;;;;;;;;;;11.40;99.90;;;;;;4985400;28;19906;-73
2023/01/07 00:25:32;;;;;;;;;;;11.40;99.90;;;;;;5002812;28;19969;-73
2023/01/07 00:27:57;;;;;;;;;;;11.20;99.90;;;;;;4988317;28;19912;-73
2023/01/07 00:30:23;;;;;;;;;;;11.00;99.90;;;;;;5003945;28;19996;-72
2023/01/07 00:33:07;;;;;;;;;;;10.80;99.90;;;;;;4999963;28;19906;-73
2023/01/07 00:35:35;;;;;;;;;;;10.90;99.90;;;;;;4988443;28;20004;-72
2023/01/07 00:38:01;;;;;;;;;;;10.80;99.90;;;;;;4963214;28;19906;-74
2023/01/07 00:40:28;;;;;;;;;;;10.90;99.90;;;;;;4980265;28;19912;-73
2023/01/07 00:42:54;;;;;;;;;;;10.80;99.90;;;;;;4979814;28;20012;-73
2023/01/07 00:45:20;;;;;;;;;;;10.90;99.90;;;;;;4994776;28;19949;-73
2023/01/07 00:47:46;;;;;;;;;;;10.80;99.90;;;;;;4961971;28;20339;-74
2023/01/07 00:50:11;;;;;;;;;;;10.80;99.90;;;;;;4989181;28;19909;-74
2023/01/07 00:52:37;;;;;;;;;;;10.80;99.90;;;;;;4997197;28;19906;-73
2023/01/07 00:55:03;;;;;;;;;;;10.90;99.90;;;;;;4996174;28;19906;-73
2023/01/07 00:57:28;;;;;;;;;;;10.90;99.90;;;;;;4995820;28;19933;-73
2023/01/07 00:59:53;;;;;;;;;;;10.90;99.90;;;;;;4963853;28;19906;-73
2023/01/07 01:02:19;;;;;;;;;;;10.90;99.90;;;;;;4976692;28;19906;-74
2023/01/07 01:04:44;;;;;;;;;;;11.00;99.90;;;;;;4977145;28;19968;-73
2023/01/07 01:07:10;;;;;;;;;;;11.00;99.90;;;;;;4959741;28;19968;-73
2023/01/07 01:09:35;;;;;;;;;;;11.00;99.90;;;;;;4976477;28;20001;-73
2023/01/07 01:12:01;;;;;;;;;;;11.00;99.90;;;;;;4960698;28;19914;-73
2023/01/07 01:14:26;;;;;;;;;;;11.00;99.90;;;;;;4961605;28;19906;-74
2023/01/07 01:16:52;;;;;;;;;;;10.90;99.90;;;;;;4978500;28;19966;-74
2023/01/07 01:19:17;;;;;;;;;;;10.90;99.90;;;;;;4976222;28;19905;-74
2023/01/07 01:21:42;;;;;;;;;;;10.90;99.90;;;;;;4971228;28;19910;-72
2023/01/07 01:24:08;;;;;;;;;;;10.80;99.90;;;;;;4959350;28;19906;-74
2023/01/07 01:26:33;;;;;;;;;;;10.80;99.90;;;;;;4958604;28;20351;-73
2023/01/07 01:28:59;;;;;;;;;;;10.90;99.90;;;;;;4977148;28;20342;-73
2023/01/07 01:31:24;;;;;;;;;;;11.10;99.90;;;;;;4958613;28;20256;-72
2023/01/07 01:33:53;;;;;;;;;;;11.30;99.90;;;;;;4976060;28;20256;-73
2023/01/07 01:36:19;;;;;;;;;;;11.30;99.90;;;;;;4990898;28;20271;-73
2023/01/07 01:38:44;;;;;;;;;;;11.30;99.90;;;;;;4999568;28;19912;-73
2023/01/07 01:41:12;;;;;;;;;;;11.10;99.90;;;;;;4997019;28;19906;-73
2023/01/07 01:43:38;;;;;;;;;;;11.00;99.90;;;;;;4997376;28;19905;-73
2023/01/07 01:46:15;;;;;;;;;;;10.80;99.90;;;;;;4997889;28;19909;-74
2023/01/07 01:48:45;;;;;;;;;;;10.70;99.90;;;;;;5014457;28;19928;-74
2023/01/07 01:51:11;;;;;;;;;;;10.70;99.90;;;;;;4988015;28;20001;-74
2023/01/07 01:53:37;;;;;;;;;;;10.70;99.90;;;;;;4983976;28;19909;-73
2023/01/07 01:56:15;;;;;;;;;;;10.80;99.90;;;;;;4977494;28;19906;-73
2023/01/07 01:59:00;;;;;;;;;;;10.80;99.90;;;;;;4994916;28;19913;-72
2023/01/07 02:01:26;;;;;;;;;;;10.70;99.90;;;;;;4992885;28;19906;-74
2023/01/07 02:03:52;;;;;;;;;;;10.70;99.90;;;;;;4978137;28;19913;-73
2023/01/07 02:06:20;;;;;;;;;;;10.70;99.90;;;;;;4976018;28;19957;-73
2023/01/07 02:08:45;;;;;;;;;;;10.60;99.90;;;;;;4978694;28;19961;-73
2023/01/07 02:11:17;;;;;;;;;;;10.80;99.90;;;;;;4995295;28;19920;-72
2023/01/07 02:13:50;;;;;;;;;;;10.70;99.90;;;;;;4996571;28;19955;-72
2023/01/07 02:16:36;;;;;;;;;;;10.70;99.90;;;;;;4995500;28;20278;-73
2023/01/07 02:19:28;;;;;;;;;;;10.70;99.90;;;;;;4977554;28;20310;-73
2023/01/07 02:22:03;;;;;;;;;;;10.70;99.90;;;;;;4993680;28;19909;-73
2023/01/07 02:24:37;;;;;;;;;;;10.70;99.90;;;;;;4995281;28;20058;-74
2023/01/07 02:27:09;;;;;;;;;;;10.70;99.90;;;;;;4995824;28;19920;-74
2023/01/07 02:29:50;;;;;;;;;;;10.80;99.90;;;;;;4978582;28;19959;-72
2023/01/07 02:32:33;;;;;;;;;;;10.80;99.90;;;;;;4977519;28;19910;-74
2023/01/07 02:35:09;;;;;;;;;;;10.80;99.90;;;;;;4978325;28;20259;-73
2023/01/07 02:37:51;;;;;;;;;;;10.70;99.90;;;;;;4979265;28;19917;-73
2023/01/07 02:40:35;;;;;;;;;;;10.70;99.90;;;;;;4993912;28;20001;-73
2023/01/07 02:43:15;;;;;;;;;;;10.80;99.90;;;;;;5012003;28;20008;-73
2023/01/07 02:45:44;;;;;;;;;;;10.70;99.90;;;;;;4987987;28;20394;-73
2023/01/07 02:48:12;;;;;;;;;;;10.70;99.90;;;;;;4978460;28;20267;-73
2023/01/07 02:50:37;;;;;;;;;;;10.70;99.90;;;;;;4978292;28;19909;-72
2023/01/07 02:53:04;;;;;;;;;;;10.70;99.90;;;;;;4978156;28;19953;-73
2023/01/07 02:55:41;;;;;;;;;;;10.70;99.90;;;;;;4976305;28;20363;-73
2023/01/07 02:58:29;;;;;;;;;;;10.70;99.90;;;;;;4978761;28;20096;-74
2023/01/07 03:01:02;;;;;;;;;;;10.70;99.90;;;;;;4996416;28;19905;-73
2023/01/07 03:03:34;;;;;;;;;;;10.60;99.90;;;;;;4976545;28;19922;-73
2023/01/07 03:06:02;;;;;;;;;;;10.60;99.90;;;;;;4971903;28;19956;-73
2023/01/07 03:08:30;;;;;;;;;;;10.60;99.90;;;;;;4997109;28;19906;-74
2023/01/07 03:11:00;;;;;;;;;;;10.60;99.90;;;;;;5001090;28;19917;-73
2023/01/07 03:13:28;;;;;;;;;;;10.80;99.90;;;;;;4990817;28;19940;-73
2023/01/07 03:16:01;;;;;;;;;;;11.00;99.90;;;;;;5010268;28;19910;-73
2023/01/07 03:18:28;;;;;;;;;;;11.10;99.90;;;;;;5012751;28;19910;-72
2023/01/07 03:20:57;;;;;;;;;;;11.00;99.90;;;;;;4995922;28;20349;-73
2023/01/07 03:23:25;;;;;;;;;;;11.00;99.90;;;;;;5011830;28;19916;-73
2023/01/07 03:25:52;;;;;;;;;;;10.90;99.90;;;;;;4999584;28;19914;-74
2023/01/07 03:28:20;;;;;;;;;;;10.80;99.90;;;;;;4970021;28;19984;-74
2023/01/07 03:30:47;;;;;;;;;;;10.70;99.90;;;;;;4989791;28;19910;-73
2023/01/07 03:33:15;;;;;;;;;;;10.60;99.90;;;;;;4983191;28;19906;-74
2023/01/07 03:35:42;;;;;;;;;;;10.60;99.90;;;;;;4981534;28;19906;-73
2023/01/07 03:38:08;;;;;;;;;;;10.50;99.90;;;;;;4980014;28;20231;-73
2023/01/07 03:40:33;;;;;;;;;;;10.60;99.90;;;;;;5001071;28;19913;-73
2023/01/07 03:42:59;;;;;;;;;;;10.50;99.90;;;;;;4986412;28;19983;-72
2023/01/07 03:45:25;;;;;;;;;;;10.50;99.90;;;;;;5006740;28;19912;-73
2023/01/07 03:47:52;;;;;;;;;;;10.60;99.90;;;;;;5009158;28;20021;-72
2023/01/07 03:50:17;;;;;;;;;;;10.60;99.90;;;;;;4992538;28;19929;-73
2023/01/07 03:52:43;;;;;;;;;;;10.70;99.90;;;;;;5032255;28;19889;-73
2023/01/07 03:55:09;;;;;;;;;;;10.80;99.90;;;;;;5035419;28;19994;-74
2023/01/07 03:57:35;;;;;;;;;;;10.80;99.90;;;;;;5034894;28;19912;-73
2023/01/07 04:00:00;;;;;;;;;;;10.70;99.90;;;;;;5018007;28;19889;-73
2023/01/07 04:02:26;;;;;;;;;;;10.60;99.90;;;;;;5018410;28;19905;-73
2023/01/07 04:04:51;;;;;;;;;;;10.60;99.90;;;;;;5017901;28;19905;-73
2023/01/07 04:07:17;;;;;;;;;;;10.60;99.90;;;;;;5036659;28;19909;-74
2023/01/07 04:09:42;;;;;;;;;;;10.60;99.90;;;;;;5035847;28;19909;-74
2023/01/07 04:12:08;;;;;;;;;;;10.50;99.90;;;;;;5035674;28;19913;-73
2023/01/07 04:14:34;;;;;;;;;;;10.60;99.90;;;;;;5034387;28;19905;-73
2023/01/07 04:16:59;;;;;;;;;;;10.60;99.90;;;;;;5017978;28;19906;-74
2023/01/07 04:19:24;;;;;;;;;;;10.70;99.90;;;;;;5026570;28;19936;-74
2023/01/07 04:21:50;;;;;;;;;;;10.70;99.90;;;;;;5002055;28;19956;-74
2023/01/07 04:24:15;;;;;;;;;;;10.60;99.90;;;;;;5015239;28;19957;-73
2023/01/07 04:26:41;;;;;;;;;;;10.60;99.90;;;;;;4998894;28;19916;-73
2023/01/07 04:29:06;;;;;;;;;;;10.60;99.90;;;;;;5017171;28;20358;-73
2023/01/07 04:31:32;;;;;;;;;;;10.60;99.90;;;;;;5019782;28;19912;-74
2023/01/07 04:33:58;;;;;;;;;;;10.60;99.90;;;;;;5024288;28;19927;-73
2023/01/07 04:36:23;;;;;;;;;;;10.60;99.90;;;;;;5031926;28;20326;-73
2023/01/07 04:38:48;;;;;;;;;;;10.50;99.90;;;;;;5016160;28;19973;-73
2023/01/07 04:41:14;;;;;;;;;;;10.50;99.90;;;;;;5016277;28;19987;-73
2023/01/07 04:43:39;;;;;;;;;;;10.60;99.90;;;;;;5034327;28;19905;-73
2023/01/07 04:46:05;;;;;;;;;;;10.70;99.90;;;;;;4998866;28;19913;-72
2023/01/07 04:48:30;;;;;;;;;;;10.70;99.90;;;;;;5015657;28;19999;-73
2023/01/07 04:50:56;;;;;;;;;;;10.90;99.90;;;;;;5015647;28;19905;-73
2023/01/07 04:53:21;;;;;;;;;;;10.90;99.90;;;;;;4995659;28;19953;-73
2023/01/07 04:55:47;;;;;;;;;;;10.80;99.90;;;;;;5015255;28;19996;-73
2023/01/07 04:58:12;;;;;;;;;;;10.70;99.90;;;;;;4998266;28;19905;-73
2023/01/07 05:00:38;;;;;;;;;;;10.70;99.90;;;;;;5015393;28;19913;-73
2023/01/07 05:03:03;;;;;;;;;;;10.70;99.90;;;;;;4997649;28;20266;-73
2023/01/07 05:05:29;;;;;;;;;;;10.70;99.90;;;;;;5015169;28;19912;-73
2023/01/07 05:07:54;;;;;;;;;;;10.80;99.90;;;;;;5005376;28;19914;-74
2023/01/07 05:10:20;;;;;;;;;;;10.70;99.90;;;;;;4978601;28;20332;-72
2023/01/07 05:12:45;;;;;;;;;;;10.70;99.90;;;;;;4995950;28;19921;-73
2023/01/07 05:15:11;;;;;;;;;;;10.70;99.90;;;;;;4995600;28;20017;-73
2023/01/07 05:17:36;;;;;;;;;;;10.70;99.90;;;;;;4987587;28;19912;-73
2023/01/07 05:20:02;;;;;;;;;;;10.90;99.90;;;;;;5015373;28;19905;-73
2023/01/07 05:22:27;;;;;;;;;;;10.90;99.90;;;;;;5015106;28;19906;-72
2023/01/07 05:24:53;;;;;;;;;;;10.90;99.90;;;;;;5014895;28;19951;-73
2023/01/07 05:27:18;;;;;;;;;;;10.90;99.90;;;;;;5015042;28;19978;-73
2023/01/07 05:29:44;;;;;;;;;;;10.90;99.90;;;;;;4997304;28;20267;-73
2023/01/07 05:32:09;;;;;;;;;;;10.90;99.90;;;;;;4996997;28;19952;-73
2023/01/07 05:34:35;;;;;;;;;;;11.00;99.90;;;;;;4997895;28;19915;-73
2023/01/07 05:37:00;;;;;;;;;;;11.00;99.90;;;;;;5015586;28;19913;-73
2023/01/07 05:39:25;;;;;;;;;;;11.00;99.90;;;;;;5014541;28;19909;-73
2023/01/07 05:41:51;;;;;;;;;;;11.00;99.90;;;;;;5015194;28;19944;-74
2023/01/07 05:44:16;;;;;;;;;;;11.00;99.90;;;;;;5016911;28;19905;-73
2023/01/07 05:46:42;;;;;;;;;;;11.00;99.90;;;;;;5001931;28;19909;-72
2023/01/07 05:49:07;;;;;;;;;;;11.00;99.90;;;;;;4994945;28;19906;-73
2023/01/07 05:51:33;;;;;;;;;;;11.00;99.90;;;;;;4999306;28;19968;-73
2023/01/07 05:53:59;;;;;;;;;;;11.00;99.90;;;;;;5018050;28;20282;-73
2023/01/07 05:56:24;;;;;;;;;;;10.90;99.90;;;;;;4998355;28;19991;-73
2023/01/07 05:58:49;;;;;;;;;;;10.80;99.90;;;;;;4998202;28;19996;-73
2023/01/07 06:01:15;;;;;;;;;;;10.80;99.90;;;;;;5014943;28;19909;-72
2023/01/07 06:03:40;;;;;;;;;;;10.80;99.90;;;;;;5015138;28;19916;-72
2023/01/07 06:06:06;;;;;;;;;;;10.90;99.90;;;;;;5014834;28;19910;-73
2023/01/07 06:08:32;;;;;;;;;;;10.90;99.90;;;;;;5015728;28;19941;-74
2023/01/07 06:10:58;;;;;;;;;;;10.80;99.90;;;;;;5015505;28;20362;-72
2023/01/07 06:13:23;;;;;;;;;;;10.70;99.90;;;;;;4997637;28;19920;-73
2023/01/07 06:15:49;;;;;;;;;;;10.80;99.90;;;;;;4998512;28;20357;-73
2023/01/07 06:18:14;;;;;;;;;;;10.90;99.90;;;;;;4995076;28;19949;-74
2023/01/07 06:20:40;;;;;;;;;;;10.80;99.90;;;;;;5016636;28;19905;-73
2023/01/07 06:23:05;;;;;;;;;;;10.80;99.90;;;;;;5016635;28;19916;-74
2023/01/07 06:25:31;;;;;;;;;;;10.70;99.90;;;;;;5016646;28;20358;-73
2023/01/07 06:27:57;;;;;;;;;;;10.70;99.90;;;;;;5017259;28;19916;-74
2023/01/07 06:30:22;;;;;;;;;;;10.60;99.90;;;;;;5016725;28;19909;-73
2023/01/07 06:32:48;;;;;;;;;;;10.70;99.90;;;;;;4998775;28;20016;-74
2023/01/07 06:35:13;;;;;;;;;;;10.70;99.90;;;;;;4999041;28;20007;-73
2023/01/07 06:37:39;;;;;;;;;;;10.80;99.90;;;;;;4998961;28;20289;-73
2023/01/07 06:40:05;;;;;;;;;;;10.80;99.90;;;;;;4999141;28;19913;-72
2023/01/07 06:42:30;;;;;;;;;;;10.90;99.90;;;;;;4998933;28;20008;-73
2023/01/07 06:44:56;;;;;;;;;;;10.90;99.90;;;;;;5019417;28;20351;-73
2023/01/07 06:47:21;;;;;;;;;;;10.80;99.90;;;;;;5020326;28;19916;-73
2023/01/07 06:49:47;;;;;;;;;;;10.70;99.90;;;;;;5003734;28;19928;-74
2023/01/07 06:52:12;;;;;;;;;;;10.80;99.90;;;;;;5002544;28;19905;-74
2023/01/07 06:54:38;;;;;;;;;;;10.80;99.90;;;;;;5021308;28;19906;-73
2023/01/07 06:57:03;;;;;;;;;;;10.70;99.90;;;;;;5003647;28;19956;-72
2023/01/07 06:59:29;;;;;;;;;;;10.60;99.90;;;;;;5007642;28;19905;-73
2023/01/07 07:01:54;;;;;;;;;;;10.70;99.90;;;;;;5007625;28;19948;-73
2023/01/07 07:04:20;;;;;;;;;;;10.80;99.90;;;;;;5023590;28;19912;-73
2023/01/07 07:06:45;;;;;;;;;;;10.80;99.90;;;;;;5003254;28;20378;-71
2023/01/07 07:09:11;;;;;;;;;;;10.80;99.90;;;;;;5000840;28;19968;-72
2023/01/07 07:11:36;;;;;;;;;;;10.80;99.90;;;;;;5002449;28;20354;-74
2023/01/07 07:14:03;;;;;;;;;;;10.80;99.90;;;;;;5001832;28;19964;-70
2023/01/07 07:16:28;;;;;;;;;;;10.70;99.90;;;;;;4999183;28;19960;-70
2023/01/07 07:18:54;;;;;;;;;;;10.70;99.90;;;;;;4995995;28;19909;-71
2023/01/07 07:21:19;;;;;;;;;;;10.60;99.90;;;;;;4996747;28;19905;-70
2023/01/07 07:23:45;;;;;;;;;;;10.60;99.90;;;;;;5016742;28;19909;-71
2023/01/07 07:26:10;;;;;;;;;;;10.60;99.90;;;;;;4998891;28;19940;-71
2023/01/07 07:28:36;;;;;;;;;;;10.60;99.90;;;;;;4998803;28;19968;-70
2023/01/07 07:31:02;;;;;;;;;;;10.60;99.90;;;;;;4998648;28;20282;-69
2023/01/07 07:33:27;;;;;;;;;;;10.70;99.90;;;;;;5015990;28;20282;-71
2023/01/07 07:35:54;;;;;;;;;;;10.70;99.90;;;;;;5015760;28;20355;-70
2023/01/07 07:38:20;;;;;;;;;;;10.60;99.90;;;;;;5015930;28;19927;-72
2023/01/07 07:40:45;;;;;;;;;;;10.60;99.90;;;;;;5000577;28;19909;-76
2023/01/07 07:43:11;;;;;;;;;;;10.60;99.90;;;;;;5000693;28;19984;-76
2023/01/07 07:45:37;;;;;;;;;;;10.50;99.90;;;;;;5015919;28;19905;-76
2023/01/07 07:48:04;;;;;;;;;;;10.50;99.90;;;;;;4998236;28;19920;-76
2023/01/07 07:50:29;;;;;;;;;;;10.60;99.90;;;;;;4998124;28;19912;-75
2023/01/07 07:52:55;;;;;;;;;;;10.60;99.90;;;;;;5015761;28;19905;-76
2023/01/07 07:55:20;;;;;;;;;;;10.60;99.90;;;;;;4997445;28;19905;-75
2023/01/07 07:57:46;;;;;;;;;;;10.60;99.90;;;;;;4998088;28;20307;-76
2023/01/07 08:00:11;;;;;;;;;;;10.60;99.90;;;;;;4998199;28;19907;-76
2023/01/07 08:02:37;;;;;;;;;;;10.60;99.90;;;;;;4999522;28;19905;-76
2023/01/07 08:05:02;;;;;;;;;;;10.50;99.90;;;;;;4998066;28;20420;-76
2023/01/07 08:07:28;;;;;;;;;;;10.60;99.90;;;;;;4997912;28;19944;-76
2023/01/07 08:09:53;;;;;;;;;;;10.70;99.90;;;;;;5002585;28;19917;-76
2023/01/07 08:12:19;;;;;;;;;;;10.70;99.90;;;;;;4942626;28;1065329;-78
2023/01/07 08:14:44;;;;;;;;;;;10.70;99.90;;;;;;4980617;28;19905;-77
2023/01/07 08:17:09;;;;;;;;;;;10.70;99.90;;;;;;4979511;28;19905;-76
2023/01/07 08:19:35;;;;;;;;;;;10.80;99.90;;;;;;4979217;28;20028;-73
2023/01/07 08:22:01;;;;;;;;;;;10.80;99.90;;;;;;4983168;28;19906;-75
2023/01/07 08:24:26;;;;;;;;;;;10.70;99.90;;;;;;5003780;28;19910;-75
2023/01/07 08:26:54;;;;;;;;;;;10.70;99.90;;;;;;4979343;28;20008;-74
2023/01/07 08:29:20;;;;;;;;;;;10.70;99.90;;;;;;4996336;28;19968;-73
2023/01/07 08:31:46;;;;;;;;;;;10.70;99.90;;;;;;4979185;28;19957;-73
2023/01/07 08:34:11;;;;;;;;;;;10.70;99.90;;;;;;4981543;28;19905;-74
2023/01/07 08:36:37;;;;;;;;;;;10.80;99.90;;;;;;4980622;28;20325;-73
2023/01/07 08:39:02;;;;;;;;;;;10.80;99.90;;;;;;4983798;28;20301;-74
2023/01/07 08:41:28;;;;;;;;;;;10.80;99.90;;;;;;4998911;28;19905;-73
2023/01/07 08:43:54;;;;;;;;;;;10.90;99.90;;;;;;4999167;28;19905;-73
2023/01/07 08:46:19;;;;;;;;;;;10.80;99.90;;;;;;5015800;28;19932;-73
2023/01/07 08:48:45;;;;;;;;;;;10.80;99.90;;;;;;5015613;28;20259;-74
2023/01/07 08:51:10;;;;;;;;;;;10.70;99.90;;;;;;4982488;28;19928;-74
2023/01/07 08:53:36;;;;;;;;;;;10.60;99.90;;;;;;4975436;28;19977;-74
2023/01/07 08:56:02;;;;;;;;;;;10.70;99.90;;;;;;4975063;28;19906;-75
2023/01/07 08:58:27;;;;;;;;;;;10.70;99.90;;;;;;4975229;28;19938;-74
2023/01/07 09:00:53;;;;;;;;;;;10.70;99.90;;;;;;4975314;28;19945;-74
2023/01/07 09:03:18;;;;;;;;;;;10.80;99.90;;;;;;4975200;28;20413;-73
2023/01/07 09:05:47;;;;;;;;;;;10.90;99.90;;;;;;4975223;28;19997;-73
2023/01/07 09:08:13;;;;;;;;;;;10.90;99.90;;;;;;4993879;28;19912;-73
2023/01/07 09:10:38;;;;;;;;;;;10.70;99.90;;;;;;5013773;28;19960;-74
2023/01/07 09:13:03;;;;;;;;;;;10.70;99.90;;;;;;4996306;28;19936;-74
2023/01/07 09:15:29;;;;;;;;;;;10.60;99.90;;;;;;4995797;28;19905;-73
2023/01/07 09:17:54;;;;;;;;;;;10.60;99.90;;;;;;4987540;28;20355;-75
2023/01/07 09:20:20;;;;;;;;;;;10.70;99.90;;;;;;4996025;28;19905;-74
2023/01/07 09:22:46;;;;;;;;;;;10.80;99.90;;;;;;4978048;28;19906;-73
2023/01/07 09:25:11;;;;;;;;;;;10.80;99.90;;;;;;4995848;28;19912;-73
2023/01/07 09:27:37;;;;;;;;;;;10.90;99.90;;;;;;4996155;28;20351;-73
2023/01/07 09:30:03;;;;;;;;;;;10.70;99.90;;;;;;4978641;28;19906;-74
2023/01/07 09:32:29;;;;;;;;;;;10.70;99.90;;;;;;4995817;28;19905;-74
2023/01/07 09:34:54;;;;;;;;;;;10.80;99.90;;;;;;4995729;28;19944;-73
2023/01/07 09:37:20;;;;;;;;;;;10.80;99.90;;;;;;4978434;28;20389;-73
2023/01/07 09:39:46;;;;;;;;;;;10.80;99.90;;;;;;5003294;28;19984;-74
2023/01/07 09:42:20;;;;;;;;;;;10.90;99.90;;;;;;4995247;28;19941;-74
2023/01/07 09:45:05;;;;;;;;;;;11.00;99.90;;;;;;4995531;28;19912;-73
2023/01/07 09:47:32;;;;;;;;;;;11.00;99.90;;;;;;4995779;28;20332;-74
2023/01/07 09:50:03;;;;;;;;;;;11.00;99.90;;;;;;4978200;28;19906;-73
2023/01/07 09:52:37;;;;;;;;;;;10.90;99.90;;;;;;4977589;28;19929;-75
2023/01/07 09:55:06;;;;;;;;;;;10.90;99.90;;;;;;4977922;28;19913;-74
2023/01/07 09:57:32;;;;;;;;;;;11.00;99.90;;;;;;4979059;28;19949;-74
2023/01/07 09:59:57;;;;;;;;;;;11.00;99.90;;;;;;4995917;28;19912;-74
2023/01/07 10:02:26;;;;;;;;;;;11.20;99.90;;;;;;4978062;28;19906;-71
2023/01/07 10:04:57;;;;;;;;;;;11.20;99.90;;;;;;4996611;28;19913;-72
2023/01/07 10:07:31;;;;;;;;;;;11.20;99.90;;;;;;4979446;28;19914;-76
2023/01/07 10:10:05;;;;;;;;;;;11.20;99.90;;;;;;4990825;28;20386;-76
2023/01/07 10:12:50;;;;;;;;;;;11.30;99.90;;;;;;5001455;28;19914;-76
2023/01/07 10:15:36;;;;;;;;;;;11.40;99.90;;;;;;4997701;28;19912;-72
2023/01/07 10:18:08;;;;;;;;;;;11.30;99.90;;;;;;5014231;28;20008;-73
2023/01/07 10:20:54;;;;;;;;;;;11.60;99.90;;;;;;5014630;28;19905;-76
2023/01/07 10:23:22;;;;;;;;;;;11.80;99.90;;;;;;4973958;28;19906;-73
2023/01/07 10:25:49;;;;;;;;;;;11.90;99.90;;;;;;4996377;28;19906;-73
2023/01/07 10:28:21;;;;;;;;;;;12.00;99.90;;;;;;4996445;28;19912;-71
2023/01/07 10:30:50;;;;;;;;;;;12.10;99.90;;;;;;5014083;28;19909;-73
2023/01/07 10:33:16;;;;;;;;;;;12.00;99.90;;;;;;5014298;28;19913;-70
2023/01/07 10:35:41;;;;;;;;;;;12.20;99.90;;;;;;5014551;28;20275;-74
2023/01/07 10:38:12;;;;;;;;;;;12.10;99.90;;;;;;5015133;28;19909;-76
2023/01/07 10:40:41;;;;;;;;;;;12.10;99.90;;;;;;5008742;28;19905;-73
2023/01/07 10:43:25;;;;;;;;;;;12.20;99.90;;;;;;4996875;28;19910;-73
2023/01/07 10:45:53;;;;;;;;;;;12.10;99.90;;;;;;5013221;28;20317;-73
2023/01/07 10:48:25;;;;;;;;;;;12.00;99.90;;;;;;4996601;28;20023;-73
2023/01/07 10:50:51;;;;;;;;;;;12.20;99.90;;;;;;4996531;28;19905;-72
2023/01/07 10:53:24;;;;;;;;;;;12.20;99.90;;;;;;4996918;28;20409;-73
2023/01/07 10:56:09;;;;;;;;;;;12.30;99.90;;;;;;5008669;28;19929;-74
2023/01/07 10:58:41;;;;;;;;;;;12.40;99.90;;;;;;4995484;28;20001;-74
2023/01/07 11:01:07;;;;;;;;;;;12.50;99.90;;;;;;4996566;28;19909;-73
2023/01/07 11:03:33;;;;;;;;;;;12.60;99.90;;;;;;4978221;28;19989;-74
2023/01/07 11:06:09;;;;;;;;;;;12.60;99.90;;;;;;4995969;28;19906;-73
2023/01/07 11:08:38;;;;;;;;;;;12.60;99.90;;;;;;5001418;28;19906;-72
2023/01/07 11:11:04;;;;;;;;;;;12.70;99.90;;;;;;5014423;28;19910;-75
2023/01/07 11:13:30;;;;;;;;;;;12.80;99.90;;;;;;5028078;23;19973;-70
2023/01/07 11:15:56;;;;;;;;;;;12.80;99.90;;;;;;5053128;28;19904;-74
2023/01/07 11:18:24;;;;;;;;;;;13.00;99.90;;;;;;5068869;28;19905;-74
2023/01/07 11:20:51;;;;;;;;;;;13.10;99.90;;;;;;5055099;28;19916;-72
2023/01/07 11:23:18;;;;;;;;;;;13.10;99.90;;;;;;5048892;28;19911;-72
2023/01/07 11:25:44;;;;;;;;;;;13.20;99.90;;;;;;5057452;28;19954;-71
2023/01/07 11:28:16;;;;;;;;;;;13.30;99.90;;;;;;5073665;28;20360;-73
2023/01/07 11:30:42;;;;;;;;;;;13.40;99.90;;;;;;5076562;28;19973;-72
2023/01/07 11:33:16;;;;;;;;;;;13.30;99.90;;;;;;5099655;28;20253;-72
2023/01/07 11:35:49;;;;;;;;;;;13.20;99.90;;;;;;5079488;28;20006;-72
2023/01/07 11:38:25;;;;;;;;;;;13.30;99.90;;;;;;5097169;28;19904;-71
2023/01/07 11:40:58;;;;;;;;;;;13.30;99.90;;;;;;5078616;28;19904;-71
2023/01/07 11:43:24;;;;;;;;;;;13.30;99.90;;;;;;5096891;28;20081;-70
2023/01/07 11:45:51;;;;;;;;;;;13.10;99.90;;;;;;5098003;28;19908;-73
2023/01/07 11:48:25;;;;;;;;;;;13.20;99.90;;;;;;5097684;28;19911;-73
2023/01/07 11:50:54;;;;;;;;;;;13.30;99.90;;;;;;5081214;28;19911;-72
2023/01/07 11:53:27;;;;;;;;;;;13.30;99.90;;;;;;5103495;28;19983;-72
2023/01/07 11:55:56;;;;;;;;;;;13.30;99.90;;;;;;5109911;28;19904;-72
2023/01/07 11:58:22;;;;;;;;;;;13.20;99.90;;;;;;5105171;28;19908;-73
2023/01/07 12:01:02;;;;;;;;;;;13.10;99.90;;;;;;5085353;28;19904;-74
2023/01/07 12:03:28;;;;;;;;;;;13.10;99.90;;;;;;5065179;28;19904;-74
2023/01/07 12:05:57;;;;;;;;;;;13.10;99.90;;;;;;5076284;28;19999;-75
2023/01/07 12:08:25;;;;;;;;;;;12.90;99.90;;;;;;5059568;28;19904;-71
2023/01/07 12:11:01;;;;;;;;;;;13.00;99.90;;;;;;5058151;28;19904;-73
2023/01/07 12:13:27;;;;;;;;;;;13.00;99.90;;;;;;5075777;28;19970;-72
2023/01/07 12:16:00;;;;;;;;;;;13.30;99.90;;;;;;5076220;28;19904;-72
2023/01/07 12:18:45;;;;;;;;;;;13.50;99.90;;;;;;5094786;28;19978;-73
2023/01/07 12:21:29;;;;;;;;;;;13.90;99.90;;;;;;5095983;28;19915;-72
2023/01/07 12:24:14;;;;;;;;;;;14.10;99.90;;;;;;5096472;28;19967;-73
2023/01/07 12:26:45;;;;;;;;;;;13.90;99.90;;;;;;5096258;28;19989;-73
2023/01/07 12:29:19;;;;;;;;;;;13.70;99.90;;;;;;5069694;28;20307;-73
2023/01/07 12:32:12;;;;;;;;;;;13.50;99.90;;;;;;5058743;28;19947;-73
2023/01/07 12:34:49;;;;;;;;;;;13.40;99.90;;;;;;5075786;28;20369;-73
2023/01/07 12:37:33;;;;;;;;;;;13.10;99.90;;;;;;5058218;28;20361;-74
2023/01/07 12:40:10;;;;;;;;;;;13.10;99.90;;;;;;5059244;28;19905;-73
2023/01/07 12:42:39;;;;;;;;;;;13.30;99.90;;;;;;5076811;28;19910;-75
2023/01/07 12:45:05;;;;;;;;;;;13.40;99.90;;;;;;5075811;28;19905;-74
2023/01/07 12:47:33;;;;;;;;;;;13.40;99.90;;;;;;5076085;28;19908;-76
2023/01/07 12:49:58;;;;;;;;;;;13.50;99.90;;;;;;5076343;28;19975;-77
2023/01/07 12:52:42;;;;;;;;;;;13.40;99.90;;;;;;5076659;28;19963;-75
2023/01/07 12:55:20;;;;;;;;;;;13.50;99.90;;;;;;5076104;28;19907;-74
2023/01/07 12:57:54;;;;;;;;;;;13.40;99.90;;;;;;5057530;28;20341;-72
2023/01/07 13:00:22;;;;;;;;;;;13.20;99.90;;;;;;5076419;28;20018;-72
2023/01/07 13:03:19;;;;;;;;;;;13.30;99.90;;;;;;5075689;28;20003;-72
2023/01/07 13:05:53;;;;;;;;;;;13.30;99.90;;;;;;4974298;28;20310;-75
2023/01/07 13:08:33;;;;;;;;;;;13.10;99.90;;;;;;4975280;28;19913;-75
2023/01/07 13:11:02;;;;;;;;;;;13.10;99.90;;;;;;4975450;28;20303;-75
2023/01/07 13:13:39;;;;;;;;;;;13.00;99.90;;;;;;4975457;28;19914;-74
2023/01/07 13:16:04;;;;;;;;;;;13.00;99.90;;;;;;4977158;28;19953;-75
2023/01/07 13:18:30;;;;;;;;;;;13.00;99.90;;;;;;4977664;28;19917;-73
2023/01/07 13:21:16;;;;;;;;;;;13.00;99.90;;;;;;4981764;28;19913;-74
2023/01/07 13:24:00;;;;;;;;;;;13.10;99.90;;;;;;4974944;28;20011;-73
2023/01/07 13:26:25;;;;;;;;;;;13.20;99.90;;;;;;4974668;28;19910;-73
2023/01/07 13:29:09;;;;;;;;;;;13.20;99.90;;;;;;4980257;28;19909;-75
2023/01/07 13:31:35;;;;;;;;;;;13.20;99.90;;;;;;4993312;28;20409;-73
2023/01/07 13:34:09;;;;;;;;;;;13.30;99.90;;;;;;4976579;28;20003;-74
2023/01/07 13:36:37;;;;;;;;;;;13.30;99.90;;;;;;4993930;28;19917;-72
2023/01/07 13:39:03;;;;;;;;;;;13.30;99.90;;;;;;4977108;28;19906;-73
2023/01/07 13:41:35;;;;;;;;;;;13.10;99.90;;;;;;5038791;28;19928;-74
2023/01/07 13:44:06;;;;;;;;;;;13.20;99.90;;;;;;5055885;28;20269;-74
2023/01/07 13:46:33;;;;;;;;;;;13.20;99.90;;;;;;5074439;28;19958;-73
2023/01/07 13:48:59;;;;;;;;;;;13.20;99.90;;;;;;5074348;28;20011;-74
2023/01/07 13:51:36;;;;;;;;;;;13.20;99.90;;;;;;5074677;28;20373;-73
2023/01/07 13:54:01;;;;;;;;;;;13.10;99.90;;;;;;5055747;28;19904;-71
2023/01/07 13:56:32;;;;;;;;;;;13.10;99.90;;;;;;5056069;28;19931;-70
2023/01/07 13:58:59;;;;;;;;;;;13.10;99.90;;;;;;5074045;28;19911;-71
2023/01/07 14:01:25;;;;;;;;;;;13.10;99.90;;;;;;5055985;28;20387;-71
2023/01/07 14:03:52;;;;;;;;;;;13.00;99.90;;;;;;5056327;28;19999;-71
2023/01/07 14:06:17;;;;;;;;;;;13.00;99.90;;;;;;5074144;28;19915;-72
2023/01/07 14:08:44;;;;;;;;;;;13.10;99.90;;;;;;5074768;28;19905;-74
2023/01/07 14:11:09;;;;;;;;;;;13.10;99.90;;;;;;5095498;28;19958;-74
2023/01/07 14:13:38;;;;;;;;;;;13.10;99.90;;;;;;5094395;28;19924;-74
2023/01/07 14:16:14;;;;;;;;;;;13.10;99.90;;;;;;5096495;28;19904;-74
2023/01/07 14:18:55;;;;;;;;;;;13.00;99.90;;;;;;5076616;28;20444;-74
2023/01/07 14:21:20;;;;;;;;;;;12.90;99.90;;;;;;5095303;28;19953;-73
2023/01/07 14:23:52;;;;;;;;;;;13.00;99.90;;;;;;5078992;28;20346;-77